sensor_id;sensor_type;location;lat;lon;timestamp;P1;durP1;ratioP1;P2;durP2;ratioP2
55537;SDS011;41383;51.418;7.286;2023-04-06T00:00:04;11.50;;;6.80;;
55537;SDS011;41383;51.418;7.286;2023-04-06T00:02:32;13.48;;;8.40;;
55537;SDS011;41383;51.418;7.286;2023-04-06T00:04:58;14.10;;;7.03;;
55537;SDS011;41383;51.418;7.286;2023-04-06T00:07:23;13.83;;;8.33;;
55537;SDS011;41383;51.418;7.286;2023-04-06T00:09:48;22.08;;;8.68;;
55537;SDS011;41383;51.418;7.286;2023-04-06T00:12:13;13.98;;;9.35;;
55537;SDS011;41383;51.418;7.286;2023-04-06T00:14:39;16.35;;;8.27;;
55537;SDS011;41383;51.418;7.286;2023-04-06T00:17:05;12.82;;;7.43;;
55537;SDS011;41383;51.418;7.286;2023-04-06T00:19:30;14.33;;;8.07;;
55537;SDS011;41383;51.418;7.286;2023-04-06T00:21:56;17.88;;;8.90;;
55537;SDS011;41383;51.418;7.286;2023-04-06T00:24:21;18.93;;;7.17;;
55537;SDS011;41383;51.418;7.286;2023-04-06T00:26:46;16.35;;;9.45;;
55537;SDS011;41383;51.418;7.286;2023-04-06T00:29:12;16.63;;;7.67;;
55537;SDS011;41383;51.418;7.286;2023-04-06T00:31:37;14.27;;;8.37;;
55537;SDS011;41383;51.418;7.286;2023-04-06T00:34:02;13.73;;;7.90;;
55537;SDS011;41383;51.418;7.286;2023-04-06T00:36:27;12.05;;;7.18;;
55537;SDS011;41383;51.418;7.286;2023-04-06T00:38:52;16.10;;;8.10;;
55537;SDS011;41383;51.418;7.286;2023-04-06T00:41:18;15.43;;;8.30;;
55537;SDS011;41383;51.418;7.286;2023-04-06T00:43:43;16.48;;;7.20;;
55537;SDS011;41383;51.418;7.286;2023-04-06T00:46:08;13.70;;;8.83;;
55537;SDS011;41383;51.418;7.286;2023-04-06T00:48:34;14.13;;;7.53;;
55537;SDS011;41383;51.418;7.286;2023-04-06T00:51:00;13.35;;;7.00;;
55537;SDS011;41383;51.418;7.286;2023-04-06T00:53:25;14.00;;;8.27;;
55537;SDS011;41383;51.418;7.286;2023-04-06T00:55:51;14.03;;;7.80;;
55537;SDS011;41383;51.418;7.286;2023-04-06T00:58:16;16.57;;;7.73;;
55537;SDS011;41383;51.418;7.286;2023-04-06T01:00:42;12.32;;;7.68;;
55537;SDS011;41383;51.418;7.286;2023-04-06T01:03:07;13.27;;;7.43;;
55537;SDS011;41383;51.418;7.286;2023-04-06T01:05:34;13.60;;;6.82;;
55537;SDS011;41383;51.418;7.286;2023-04-06T01:07:59;10.18;;;5.53;;
55537;SDS011;41383;51.418;7.286;2023-04-06T01:10:25;15.50;;;7.53;;
55537;SDS011;41383;51.418;7.286;2023-04-06T01:12:52;12.52;;;7.15;;
55537;SDS011;41383;51.418;7.286;2023-04-06T01:15:17;13.40;;;7.28;;
55537;SDS011;41383;51.418;7.286;2023-04-06T01:17:43;11.10;;;6.13;;
55537;SDS011;41383;51.418;7.286;2023-04-06T01:20:08;12.05;;;6.68;;
55537;SDS011;41383;51.418;7.286;2023-04-06T01:22:33;13.90;;;7.55;;
55537;SDS011;41383;51.418;7.286;2023-04-06T01:24:59;12.70;;;7.60;;
55537;SDS011;41383;51.418;7.286;2023-04-06T01:27:24;16.63;;;6.90;;
55537;SDS011;41383;51.418;7.286;2023-04-06T01:29:51;13.80;;;7.40;;
55537;SDS011;41383;51.418;7.286;2023-04-06T01:32:16;12.98;;;6.72;;
55537;SDS011;41383;51.418;7.286;2023-04-06T01:34:41;14.10;;;7.57;;
55537;SDS011;41383;51.418;7.286;2023-04-06T01:37:07;11.07;;;5.93;;
55537;SDS011;41383;51.418;7.286;2023-04-06T01:39:32;13.15;;;8.07;;
55537;SDS011;41383;51.418;7.286;2023-04-06T01:41:57;12.77;;;6.28;;
55537;SDS011;41383;51.418;7.286;2023-04-06T01:44:23;16.98;;;8.02;;
55537;SDS011;41383;51.418;7.286;2023-04-06T01:46:48;28.83;;;7.07;;
55537;SDS011;41383;51.418;7.286;2023-04-06T01:49:13;10.00;;;5.80;;
55537;SDS011;41383;51.418;7.286;2023-04-06T01:51:38;17.10;;;8.60;;
55537;SDS011;41383;51.418;7.286;2023-04-06T01:54:04;13.60;;;6.20;;
55537;SDS011;41383;51.418;7.286;2023-04-06T01:56:29;16.65;;;6.68;;
55537;SDS011;41383;51.418;7.286;2023-04-06T01:58:54;13.18;;;6.85;;
55537;SDS011;41383;51.418;7.286;2023-04-06T02:01:20;14.20;;;6.43;;
55537;SDS011;41383;51.418;7.286;2023-04-06T02:03:46;17.17;;;8.52;;
55537;SDS011;41383;51.418;7.286;2023-04-06T02:06:11;15.18;;;6.25;;
55537;SDS011;41383;51.418;7.286;2023-04-06T02:08:36;10.67;;;5.97;;
55537;SDS011;41383;51.418;7.286;2023-04-06T02:11:01;13.32;;;7.00;;
55537;SDS011;41383;51.418;7.286;2023-04-06T02:13:27;12.90;;;6.28;;
55537;SDS011;41383;51.418;7.286;2023-04-06T02:15:52;13.85;;;6.28;;
55537;SDS011;41383;51.418;7.286;2023-04-06T02:18:17;10.67;;;6.33;;
55537;SDS011;41383;51.418;7.286;2023-04-06T02:20:43;12.07;;;6.13;;
55537;SDS011;41383;51.418;7.286;2023-04-06T02:23:09;13.27;;;6.25;;
55537;SDS011;41383;51.418;7.286;2023-04-06T02:25:34;13.13;;;6.82;;
55537;SDS011;41383;51.418;7.286;2023-04-06T02:28:00;13.02;;;6.45;;
55537;SDS011;41383;51.418;7.286;2023-04-06T02:30:25;10.38;;;6.28;;
55537;SDS011;41383;51.418;7.286;2023-04-06T02:32:50;12.87;;;6.37;;
55537;SDS011;41383;51.418;7.286;2023-04-06T02:35:16;14.48;;;7.38;;
55537;SDS011;41383;51.418;7.286;2023-04-06T02:37:41;11.32;;;6.43;;
55537;SDS011;41383;51.418;7.286;2023-04-06T02:40:06;10.30;;;5.63;;
55537;SDS011;41383;51.418;7.286;2023-04-06T02:42:32;14.95;;;7.90;;
55537;SDS011;41383;51.418;7.286;2023-04-06T02:44:57;14.43;;;7.00;;
55537;SDS011;41383;51.418;7.286;2023-04-06T02:47:23;11.27;;;4.95;;
55537;SDS011;41383;51.418;7.286;2023-04-06T02:49:48;12.73;;;5.40;;
55537;SDS011;41383;51.418;7.286;2023-04-06T02:52:13;13.10;;;7.37;;
55537;SDS011;41383;51.418;7.286;2023-04-06T02:54:39;13.55;;;7.22;;
55537;SDS011;41383;51.418;7.286;2023-04-06T02:57:04;12.80;;;6.72;;
55537;SDS011;41383;51.418;7.286;2023-04-06T02:59:30;13.60;;;6.38;;
55537;SDS011;41383;51.418;7.286;2023-04-06T03:01:55;17.67;;;8.20;;
55537;SDS011;41383;51.418;7.286;2023-04-06T03:04:21;12.23;;;6.80;;
55537;SDS011;41383;51.418;7.286;2023-04-06T03:06:47;12.43;;;5.70;;
55537;SDS011;41383;51.418;7.286;2023-04-06T03:09:13;13.80;;;7.25;;
55537;SDS011;41383;51.418;7.286;2023-04-06T03:11:39;11.52;;;6.82;;
55537;SDS011;41383;51.418;7.286;2023-04-06T03:14:04;12.43;;;6.32;;
55537;SDS011;41383;51.418;7.286;2023-04-06T03:16:30;10.82;;;7.32;;
55537;SDS011;41383;51.418;7.286;2023-04-06T03:18:55;13.03;;;6.57;;
55537;SDS011;41383;51.418;7.286;2023-04-06T03:21:21;11.98;;;6.53;;
55537;SDS011;41383;51.418;7.286;2023-04-06T03:23:46;13.32;;;6.75;;
55537;SDS011;41383;51.418;7.286;2023-04-06T03:26:11;13.15;;;6.40;;
55537;SDS011;41383;51.418;7.286;2023-04-06T03:28:36;15.80;;;8.33;;
55537;SDS011;41383;51.418;7.286;2023-04-06T03:31:02;12.83;;;7.37;;
55537;SDS011;41383;51.418;7.286;2023-04-06T03:33:27;13.37;;;6.23;;
55537;SDS011;41383;51.418;7.286;2023-04-06T03:35:52;12.53;;;6.13;;
55537;SDS011;41383;51.418;7.286;2023-04-06T03:38:18;13.73;;;6.50;;
55537;SDS011;41383;51.418;7.286;2023-04-06T03:40:43;14.38;;;7.40;;
55537;SDS011;41383;51.418;7.286;2023-04-06T03:43:09;13.98;;;6.72;;
55537;SDS011;41383;51.418;7.286;2023-04-06T03:45:34;14.43;;;7.32;;
55537;SDS011;41383;51.418;7.286;2023-04-06T03:47:59;12.93;;;6.57;;
55537;SDS011;41383;51.418;7.286;2023-04-06T03:50:25;14.23;;;6.70;;
55537;SDS011;41383;51.418;7.286;2023-04-06T03:52:51;10.68;;;6.47;;
55537;SDS011;41383;51.418;7.286;2023-04-06T03:55:16;13.73;;;8.57;;
55537;SDS011;41383;51.418;7.286;2023-04-06T03:57:41;10.88;;;6.90;;
55537;SDS011;41383;51.418;7.286;2023-04-06T04:00:07;11.93;;;6.00;;
55537;SDS011;41383;51.418;7.286;2023-04-06T04:02:32;13.40;;;6.50;;
55537;SDS011;41383;51.418;7.286;2023-04-06T04:04:58;14.38;;;6.53;;
55537;SDS011;41383;51.418;7.286;2023-04-06T04:07:23;11.47;;;7.00;;
55537;SDS011;41383;51.418;7.286;2023-04-06T04:09:48;14.53;;;6.83;;
55537;SDS011;41383;51.418;7.286;2023-04-06T04:12:13;16.38;;;8.05;;
55537;SDS011;41383;51.418;7.286;2023-04-06T04:14:40;18.85;;;7.70;;
55537;SDS011;41383;51.418;7.286;2023-04-06T04:17:05;17.48;;;7.47;;
55537;SDS011;41383;51.418;7.286;2023-04-06T04:19:30;16.92;;;7.55;;
55537;SDS011;41383;51.418;7.286;2023-04-06T04:21:56;13.98;;;6.18;;
55537;SDS011;41383;51.418;7.286;2023-04-06T04:24:21;9.27;;;5.80;;
55537;SDS011;41383;51.418;7.286;2023-04-06T04:26:46;11.30;;;6.20;;
55537;SDS011;41383;51.418;7.286;2023-04-06T04:29:11;12.23;;;6.13;;
55537;SDS011;41383;51.418;7.286;2023-04-06T04:31:37;17.60;;;6.93;;
55537;SDS011;41383;51.418;7.286;2023-04-06T04:34:02;15.77;;;7.13;;
55537;SDS011;41383;51.418;7.286;2023-04-06T04:36:28;13.70;;;7.68;;
55537;SDS011;41383;51.418;7.286;2023-04-06T04:38:53;14.60;;;7.20;;
55537;SDS011;41383;51.418;7.286;2023-04-06T04:41:19;11.38;;;6.38;;
55537;SDS011;41383;51.418;7.286;2023-04-06T04:43:44;10.98;;;5.38;;
55537;SDS011;41383;51.418;7.286;2023-04-06T04:46:10;16.20;;;6.38;;
55537;SDS011;41383;51.418;7.286;2023-04-06T04:48:35;11.73;;;6.82;;
55537;SDS011;41383;51.418;7.286;2023-04-06T04:51:01;15.55;;;7.25;;
55537;SDS011;41383;51.418;7.286;2023-04-06T04:53:27;13.30;;;5.10;;
55537;SDS011;41383;51.418;7.286;2023-04-06T04:55:52;13.18;;;5.82;;
55537;SDS011;41383;51.418;7.286;2023-04-06T04:58:17;9.30;;;5.43;;
55537;SDS011;41383;51.418;7.286;2023-04-06T05:00:44;14.25;;;7.57;;
55537;SDS011;41383;51.418;7.286;2023-04-06T05:03:12;14.10;;;6.38;;
55537;SDS011;41383;51.418;7.286;2023-04-06T05:05:42;9.95;;;5.45;;
55537;SDS011;41383;51.418;7.286;2023-04-06T05:08:08;9.87;;;5.80;;
55537;SDS011;41383;51.418;7.286;2023-04-06T05:10:33;12.40;;;6.00;;
55537;SDS011;41383;51.418;7.286;2023-04-06T05:12:59;11.32;;;7.57;;
55537;SDS011;41383;51.418;7.286;2023-04-06T05:15:25;11.75;;;6.35;;
55537;SDS011;41383;51.418;7.286;2023-04-06T05:17:50;12.10;;;5.63;;
55537;SDS011;41383;51.418;7.286;2023-04-06T05:20:15;12.73;;;7.05;;
55537;SDS011;41383;51.418;7.286;2023-04-06T05:22:41;12.57;;;5.88;;
55537;SDS011;41383;51.418;7.286;2023-04-06T05:25:06;12.30;;;5.43;;
55537;SDS011;41383;51.418;7.286;2023-04-06T05:27:31;11.35;;;6.15;;
55537;SDS011;41383;51.418;7.286;2023-04-06T05:29:57;10.15;;;6.35;;
55537;SDS011;41383;51.418;7.286;2023-04-06T05:32:22;15.15;;;6.72;;
55537;SDS011;41383;51.418;7.286;2023-04-06T05:34:49;12.73;;;6.43;;
55537;SDS011;41383;51.418;7.286;2023-04-06T05:37:15;16.92;;;6.93;;
55537;SDS011;41383;51.418;7.286;2023-04-06T05:39:40;9.20;;;5.22;;
55537;SDS011;41383;51.418;7.286;2023-04-06T05:42:06;13.17;;;7.40;;
55537;SDS011;41383;51.418;7.286;2023-04-06T05:44:31;12.73;;;6.00;;
55537;SDS011;41383;51.418;7.286;2023-04-06T05:46:56;15.48;;;7.45;;
55537;SDS011;41383;51.418;7.286;2023-04-06T05:49:22;10.43;;;5.33;;
55537;SDS011;41383;51.418;7.286;2023-04-06T05:51:47;14.97;;;8.20;;
55537;SDS011;41383;51.418;7.286;2023-04-06T05:54:12;13.40;;;6.30;;
55537;SDS011;41383;51.418;7.286;2023-04-06T05:56:37;13.53;;;6.37;;
55537;SDS011;41383;51.418;7.286;2023-04-06T05:59:03;17.70;;;7.63;;
55537;SDS011;41383;51.418;7.286;2023-04-06T06:01:28;14.40;;;6.57;;
55537;SDS011;41383;51.418;7.286;2023-04-06T06:03:54;13.80;;;6.93;;
55537;SDS011;41383;51.418;7.286;2023-04-06T06:06:19;12.65;;;6.65;;
55537;SDS011;41383;51.418;7.286;2023-04-06T06:08:45;14.57;;;6.72;;
55537;SDS011;41383;51.418;7.286;2023-04-06T06:11:10;11.88;;;6.75;;
55537;SDS011;41383;51.418;7.286;2023-04-06T06:13:36;12.25;;;7.10;;
55537;SDS011;41383;51.418;7.286;2023-04-06T06:16:01;9.75;;;5.20;;
55537;SDS011;41383;51.418;7.286;2023-04-06T06:18:30;10.80;;;5.90;;
55537;SDS011;41383;51.418;7.286;2023-04-06T06:20:55;14.68;;;6.43;;
55537;SDS011;41383;51.418;7.286;2023-04-06T06:23:20;11.30;;;5.45;;
55537;SDS011;41383;51.418;7.286;2023-04-06T06:25:46;11.70;;;6.20;;
55537;SDS011;41383;51.418;7.286;2023-04-06T06:28:11;15.07;;;7.88;;
55537;SDS011;41383;51.418;7.286;2023-04-06T06:30:36;15.38;;;7.82;;
55537;SDS011;41383;51.418;7.286;2023-04-06T06:33:01;17.45;;;5.57;;
55537;SDS011;41383;51.418;7.286;2023-04-06T06:35:28;13.13;;;6.25;;
55537;SDS011;41383;51.418;7.286;2023-04-06T06:37:53;11.18;;;6.20;;
55537;SDS011;41383;51.418;7.286;2023-04-06T06:40:18;13.40;;;5.90;;
55537;SDS011;41383;51.418;7.286;2023-04-06T06:42:44;14.35;;;6.70;;
55537;SDS011;41383;51.418;7.286;2023-04-06T06:45:10;14.85;;;6.20;;
55537;SDS011;41383;51.418;7.286;2023-04-06T06:47:35;12.73;;;7.43;;
55537;SDS011;41383;51.418;7.286;2023-04-06T06:50:01;11.95;;;6.90;;
55537;SDS011;41383;51.418;7.286;2023-04-06T06:52:28;10.27;;;5.53;;
55537;SDS011;41383;51.418;7.286;2023-04-06T06:54:53;13.40;;;6.18;;
55537;SDS011;41383;51.418;7.286;2023-04-06T06:57:19;13.35;;;5.95;;
55537;SDS011;41383;51.418;7.286;2023-04-06T06:59:44;13.25;;;7.32;;
55537;SDS011;41383;51.418;7.286;2023-04-06T07:02:09;13.55;;;6.40;;
55537;SDS011;41383;51.418;7.286;2023-04-06T07:04:35;12.10;;;5.47;;
55537;SDS011;41383;51.418;7.286;2023-04-06T07:07:00;9.93;;;5.50;;
55537;SDS011;41383;51.418;7.286;2023-04-06T07:09:26;12.50;;;6.05;;
55537;SDS011;41383;51.418;7.286;2023-04-06T07:11:51;10.93;;;5.65;;
55537;SDS011;41383;51.418;7.286;2023-04-06T07:14:17;11.57;;;5.70;;
55537;SDS011;41383;51.418;7.286;2023-04-06T07:16:42;14.25;;;6.75;;
55537;SDS011;41383;51.418;7.286;2023-04-06T07:19:09;14.50;;;7.15;;
55537;SDS011;41383;51.418;7.286;2023-04-06T07:21:35;11.40;;;6.40;;
55537;SDS011;41383;51.418;7.286;2023-04-06T07:24:00;14.20;;;7.28;;
55537;SDS011;41383;51.418;7.286;2023-04-06T07:26:26;10.82;;;5.78;;
55537;SDS011;41383;51.418;7.286;2023-04-06T07:28:52;11.15;;;6.30;;
55537;SDS011;41383;51.418;7.286;2023-04-06T07:31:17;10.55;;;5.63;;
55537;SDS011;41383;51.418;7.286;2023-04-06T07:33:42;15.43;;;7.17;;
55537;SDS011;41383;51.418;7.286;2023-04-06T07:36:07;15.73;;;7.28;;
55537;SDS011;41383;51.418;7.286;2023-04-06T07:38:33;14.00;;;6.70;;
55537;SDS011;41383;51.418;7.286;2023-04-06T07:40:58;13.17;;;6.23;;
55537;SDS011;41383;51.418;7.286;2023-04-06T07:43:23;12.15;;;7.28;;
55537;SDS011;41383;51.418;7.286;2023-04-06T07:45:48;15.20;;;7.30;;
55537;SDS011;41383;51.418;7.286;2023-04-06T07:48:14;14.75;;;7.70;;
55537;SDS011;41383;51.418;7.286;2023-04-06T07:50:39;10.73;;;5.28;;
55537;SDS011;41383;51.418;7.286;2023-04-06T07:53:05;20.00;;;7.53;;
55537;SDS011;41383;51.418;7.286;2023-04-06T07:55:30;9.20;;;5.15;;
55537;SDS011;41383;51.418;7.286;2023-04-06T07:57:55;10.93;;;6.40;;
55537;SDS011;41383;51.418;7.286;2023-04-06T08:00:21;9.80;;;4.97;;
55537;SDS011;41383;51.418;7.286;2023-04-06T08:02:46;11.20;;;6.28;;
55537;SDS011;41383;51.418;7.286;2023-04-06T08:05:11;9.87;;;4.73;;
55537;SDS011;41383;51.418;7.286;2023-04-06T08:07:37;13.45;;;7.30;;
55537;SDS011;41383;51.418;7.286;2023-04-06T08:10:02;16.05;;;7.32;;
55537;SDS011;41383;51.418;7.286;2023-04-06T08:12:28;16.85;;;6.65;;
55537;SDS011;41383;51.418;7.286;2023-04-06T08:14:53;10.50;;;5.67;;
55537;SDS011;41383;51.418;7.286;2023-04-06T08:17:18;16.00;;;6.67;;
55537;SDS011;41383;51.418;7.286;2023-04-06T08:19:43;11.73;;;7.22;;
55537;SDS011;41383;51.418;7.286;2023-04-06T08:22:09;10.73;;;6.53;;
55537;SDS011;41383;51.418;7.286;2023-04-06T08:24:35;12.52;;;6.53;;
55537;SDS011;41383;51.418;7.286;2023-04-06T08:27:00;13.00;;;6.17;;
55537;SDS011;41383;51.418;7.286;2023-04-06T08:29:25;13.63;;;7.13;;
55537;SDS011;41383;51.418;7.286;2023-04-06T08:31:50;11.40;;;6.03;;
55537;SDS011;41383;51.418;7.286;2023-04-06T08:34:16;10.43;;;5.57;;
55537;SDS011;41383;51.418;7.286;2023-04-06T08:36:41;10.97;;;6.13;;
55537;SDS011;41383;51.418;7.286;2023-04-06T08:39:06;16.20;;;6.78;;
55537;SDS011;41383;51.418;7.286;2023-04-06T08:41:31;13.17;;;6.23;;
55537;SDS011;41383;51.418;7.286;2023-04-06T08:43:58;12.60;;;7.25;;
55537;SDS011;41383;51.418;7.286;2023-04-06T08:46:25;13.93;;;6.10;;
55537;SDS011;41383;51.418;7.286;2023-04-06T08:48:58;15.48;;;8.43;;
55537;SDS011;41383;51.418;7.286;2023-04-06T08:51:25;15.20;;;7.47;;
55537;SDS011;41383;51.418;7.286;2023-04-06T08:53:55;14.00;;;7.65;;
55537;SDS011;41383;51.418;7.286;2023-04-06T08:56:25;22.83;;;8.45;;
55537;SDS011;41383;51.418;7.286;2023-04-06T08:58:52;14.93;;;6.60;;
55537;SDS011;41383;51.418;7.286;2023-04-06T09:01:20;14.45;;;7.93;;
55537;SDS011;41383;51.418;7.286;2023-04-06T09:03:49;16.80;;;9.00;;
55537;SDS011;41383;51.418;7.286;2023-04-06T09:06:15;15.18;;;7.55;;
55537;SDS011;41383;51.418;7.286;2023-04-06T09:08:41;13.55;;;7.68;;
55537;SDS011;41383;51.418;7.286;2023-04-06T09:11:07;14.15;;;7.00;;
55537;SDS011;41383;51.418;7.286;2023-04-06T09:16:19;19.67;;;8.77;;
55537;SDS011;41383;51.418;7.286;2023-04-06T09:18:45;18.15;;;7.43;;
55537;SDS011;41383;51.418;7.286;2023-04-06T09:21:11;13.82;;;7.72;;
55537;SDS011;41383;51.418;7.286;2023-04-06T09:23:37;16.75;;;8.07;;
55537;SDS011;41383;51.418;7.286;2023-04-06T09:26:13;17.98;;;10.50;;
55537;SDS011;41383;51.418;7.286;2023-04-06T09:28:43;13.45;;;7.47;;
55537;SDS011;41383;51.418;7.286;2023-04-06T09:31:13;18.15;;;9.25;;
55537;SDS011;41383;51.418;7.286;2023-04-06T09:33:41;18.35;;;8.15;;
55537;SDS011;41383;51.418;7.286;2023-04-06T09:36:07;20.95;;;11.18;;
55537;SDS011;41383;51.418;7.286;2023-04-06T09:38:35;15.60;;;9.00;;
55537;SDS011;41383;51.418;7.286;2023-04-06T09:41:02;21.02;;;9.98;;
55537;SDS011;41383;51.418;7.286;2023-04-06T09:43:27;17.90;;;8.75;;
55537;SDS011;41383;51.418;7.286;2023-04-06T09:45:52;16.40;;;8.65;;
55537;SDS011;41383;51.418;7.286;2023-04-06T09:48:18;18.35;;;9.70;;
55537;SDS011;41383;51.418;7.286;2023-04-06T09:50:46;16.42;;;9.02;;
55537;SDS011;41383;51.418;7.286;2023-04-06T09:53:15;18.80;;;9.55;;
55537;SDS011;41383;51.418;7.286;2023-04-06T09:55:44;16.02;;;9.13;;
55537;SDS011;41383;51.418;7.286;2023-04-06T09:58:16;14.50;;;7.53;;
55537;SDS011;41383;51.418;7.286;2023-04-06T10:00:47;18.67;;;9.38;;
55537;SDS011;41383;51.418;7.286;2023-04-06T10:03:21;16.73;;;9.07;;
55537;SDS011;41383;51.418;7.286;2023-04-06T10:06:03;17.27;;;8.75;;
55537;SDS011;41383;51.418;7.286;2023-04-06T10:08:33;19.25;;;9.73;;
55537;SDS011;41383;51.418;7.286;2023-04-06T10:11:01;18.08;;;9.70;;
55537;SDS011;41383;51.418;7.286;2023-04-06T10:13:27;19.20;;;8.50;;
55537;SDS011;41383;51.418;7.286;2023-04-06T10:15:52;17.42;;;9.57;;
55537;SDS011;41383;51.418;7.286;2023-04-06T10:18:19;17.15;;;9.65;;
55537;SDS011;41383;51.418;7.286;2023-04-06T10:20:49;17.20;;;9.80;;
55537;SDS011;41383;51.418;7.286;2023-04-06T10:26:16;19.33;;;10.27;;
55537;SDS011;41383;51.418;7.286;2023-04-06T10:28:45;17.23;;;9.85;;
55537;SDS011;41383;51.418;7.286;2023-04-06T10:31:12;18.70;;;10.15;;
55537;SDS011;41383;51.418;7.286;2023-04-06T10:33:37;16.35;;;9.60;;
55537;SDS011;41383;51.418;7.286;2023-04-06T10:36:21;23.52;;;12.70;;
55537;SDS011;41383;51.418;7.286;2023-04-06T10:38:53;22.77;;;10.45;;
55537;SDS011;41383;51.418;7.286;2023-04-06T10:41:20;25.17;;;11.60;;
55537;SDS011;41383;51.418;7.286;2023-04-06T10:43:46;19.40;;;9.20;;
55537;SDS011;41383;51.418;7.286;2023-04-06T10:46:24;25.25;;;13.23;;
55537;SDS011;41383;51.418;7.286;2023-04-06T10:48:51;18.30;;;10.25;;
55537;SDS011;41383;51.418;7.286;2023-04-06T10:51:17;25.88;;;13.85;;
55537;SDS011;41383;51.418;7.286;2023-04-06T10:53:44;18.73;;;10.07;;
55537;SDS011;41383;51.418;7.286;2023-04-06T10:56:12;22.15;;;11.57;;
55537;SDS011;41383;51.418;7.286;2023-04-06T10:58:45;23.83;;;12.75;;
55537;SDS011;41383;51.418;7.286;2023-04-06T11:01:15;18.80;;;9.85;;
55537;SDS011;41383;51.418;7.286;2023-04-06T11:03:46;20.10;;;11.77;;
55537;SDS011;41383;51.418;7.286;2023-04-06T11:06:25;18.67;;;9.77;;
55537;SDS011;41383;51.418;7.286;2023-04-06T11:08:52;21.58;;;12.73;;
55537;SDS011;41383;51.418;7.286;2023-04-06T11:11:19;23.80;;;12.75;;
55537;SDS011;41383;51.418;7.286;2023-04-06T11:13:50;29.83;;;14.25;;
55537;SDS011;41383;51.418;7.286;2023-04-06T11:16:34;25.45;;;13.95;;
55537;SDS011;41383;51.418;7.286;2023-04-06T11:19:03;22.13;;;13.10;;
55537;SDS011;41383;51.418;7.286;2023-04-06T11:21:43;26.52;;;13.07;;
55537;SDS011;41383;51.418;7.286;2023-04-06T11:24:14;26.23;;;13.95;;
55537;SDS011;41383;51.418;7.286;2023-04-06T11:26:51;24.00;;;13.52;;
55537;SDS011;41383;51.418;7.286;2023-04-06T11:29:20;21.35;;;11.32;;
55537;SDS011;41383;51.418;7.286;2023-04-06T11:31:48;25.08;;;14.48;;
55537;SDS011;41383;51.418;7.286;2023-04-06T11:34:16;25.00;;;15.18;;
55537;SDS011;41383;51.418;7.286;2023-04-06T11:36:46;32.58;;;14.68;;
55537;SDS011;41383;51.418;7.286;2023-04-06T11:39:13;27.50;;;12.57;;
55537;SDS011;41383;51.418;7.286;2023-04-06T11:41:42;20.85;;;12.30;;
55537;SDS011;41383;51.418;7.286;2023-04-06T11:44:12;29.50;;;15.43;;
55537;SDS011;41383;51.418;7.286;2023-04-06T11:46:37;65.37;;;17.03;;
55537;SDS011;41383;51.418;7.286;2023-04-06T11:49:03;28.45;;;13.52;;
55537;SDS011;41383;51.418;7.286;2023-04-06T11:51:28;34.42;;;11.90;;
55537;SDS011;41383;51.418;7.286;2023-04-06T11:53:53;57.50;;;15.00;;
55537;SDS011;41383;51.418;7.286;2023-04-06T11:56:26;31.25;;;12.48;;
55537;SDS011;41383;51.418;7.286;2023-04-06T11:58:57;22.05;;;10.48;;
55537;SDS011;41383;51.418;7.286;2023-04-06T12:01:24;21.50;;;10.02;;
55537;SDS011;41383;51.418;7.286;2023-04-06T12:03:50;16.33;;;9.52;;
55537;SDS011;41383;51.418;7.286;2023-04-06T12:06:17;20.20;;;10.05;;
55537;SDS011;41383;51.418;7.286;2023-04-06T12:08:42;20.90;;;10.43;;
55537;SDS011;41383;51.418;7.286;2023-04-06T12:11:08;20.25;;;9.15;;
55537;SDS011;41383;51.418;7.286;2023-04-06T12:13:33;18.83;;;9.35;;
55537;SDS011;41383;51.418;7.286;2023-04-06T12:15:58;19.63;;;11.93;;
55537;SDS011;41383;51.418;7.286;2023-04-06T12:18:24;18.42;;;9.65;;
55537;SDS011;41383;51.418;7.286;2023-04-06T12:20:50;18.52;;;8.95;;
55537;SDS011;41383;51.418;7.286;2023-04-06T12:23:16;22.55;;;12.13;;
55537;SDS011;41383;51.418;7.286;2023-04-06T12:25:42;21.87;;;9.87;;
55537;SDS011;41383;51.418;7.286;2023-04-06T12:28:07;13.93;;;8.07;;
55537;SDS011;41383;51.418;7.286;2023-04-06T12:30:34;14.38;;;9.88;;
55537;SDS011;41383;51.418;7.286;2023-04-06T12:33:00;19.80;;;9.30;;
55537;SDS011;41383;51.418;7.286;2023-04-06T12:35:25;19.58;;;9.23;;
55537;SDS011;41383;51.418;7.286;2023-04-06T12:37:50;19.02;;;9.80;;
55537;SDS011;41383;51.418;7.286;2023-04-06T12:40:16;18.77;;;9.05;;
55537;SDS011;41383;51.418;7.286;2023-04-06T12:42:41;16.05;;;8.77;;
55537;SDS011;41383;51.418;7.286;2023-04-06T12:45:07;17.88;;;9.30;;
55537;SDS011;41383;51.418;7.286;2023-04-06T12:47:35;25.25;;;11.00;;
55537;SDS011;41383;51.418;7.286;2023-04-06T12:50:01;19.58;;;9.50;;
55537;SDS011;41383;51.418;7.286;2023-04-06T12:52:27;18.40;;;10.65;;
55537;SDS011;41383;51.418;7.286;2023-04-06T12:54:55;15.90;;;9.85;;
55537;SDS011;41383;51.418;7.286;2023-04-06T12:57:20;23.02;;;9.70;;
55537;SDS011;41383;51.418;7.286;2023-04-06T12:59:46;22.15;;;11.18;;
55537;SDS011;41383;51.418;7.286;2023-04-06T13:02:11;18.80;;;8.93;;
55537;SDS011;41383;51.418;7.286;2023-04-06T13:04:36;18.88;;;9.50;;
55537;SDS011;41383;51.418;7.286;2023-04-06T13:07:02;21.40;;;9.67;;
55537;SDS011;41383;51.418;7.286;2023-04-06T13:09:27;21.43;;;10.97;;
55537;SDS011;41383;51.418;7.286;2023-04-06T13:11:52;18.23;;;8.75;;
55537;SDS011;41383;51.418;7.286;2023-04-06T13:14:17;17.38;;;9.82;;
55537;SDS011;41383;51.418;7.286;2023-04-06T13:16:43;17.77;;;10.10;;
55537;SDS011;41383;51.418;7.286;2023-04-06T13:19:08;25.03;;;11.27;;
55537;SDS011;41383;51.418;7.286;2023-04-06T13:21:33;23.70;;;10.33;;
55537;SDS011;41383;51.418;7.286;2023-04-06T13:23:58;18.40;;;10.70;;
55537;SDS011;41383;51.418;7.286;2023-04-06T13:26:24;21.83;;;9.25;;
55537;SDS011;41383;51.418;7.286;2023-04-06T13:28:50;12.90;;;7.10;;
55537;SDS011;41383;51.418;7.286;2023-04-06T13:31:15;16.30;;;9.50;;
55537;SDS011;41383;51.418;7.286;2023-04-06T13:33:41;24.20;;;11.25;;
55537;SDS011;41383;51.418;7.286;2023-04-06T13:36:06;19.52;;;9.85;;
55537;SDS011;41383;51.418;7.286;2023-04-06T13:38:32;16.85;;;9.05;;
55537;SDS011;41383;51.418;7.286;2023-04-06T13:40:58;25.85;;;11.50;;
55537;SDS011;41383;51.418;7.286;2023-04-06T13:43:24;22.60;;;9.95;;
55537;SDS011;41383;51.418;7.286;2023-04-06T13:45:51;25.38;;;11.27;;
55537;SDS011;41383;51.418;7.286;2023-04-06T13:48:23;15.98;;;8.80;;
55537;SDS011;41383;51.418;7.286;2023-04-06T13:50:49;20.45;;;10.15;;
55537;SDS011;41383;51.418;7.286;2023-04-06T13:53:14;17.85;;;9.65;;
55537;SDS011;41383;51.418;7.286;2023-04-06T13:55:40;18.98;;;9.40;;
55537;SDS011;41383;51.418;7.286;2023-04-06T13:58:05;21.17;;;10.27;;
55537;SDS011;41383;51.418;7.286;2023-04-06T14:00:31;20.17;;;10.70;;
55537;SDS011;41383;51.418;7.286;2023-04-06T14:02:56;21.53;;;11.20;;
55537;SDS011;41383;51.418;7.286;2023-04-06T14:05:21;17.55;;;9.27;;
55537;SDS011;41383;51.418;7.286;2023-04-06T14:07:48;18.15;;;9.88;;
55537;SDS011;41383;51.418;7.286;2023-04-06T14:10:14;45.70;;;10.65;;
55537;SDS011;41383;51.418;7.286;2023-04-06T14:12:43;21.30;;;11.05;;
55537;SDS011;41383;51.418;7.286;2023-04-06T14:15:11;15.30;;;7.88;;
55537;SDS011;41383;51.418;7.286;2023-04-06T14:17:37;17.73;;;8.40;;
55537;SDS011;41383;51.418;7.286;2023-04-06T14:20:03;15.55;;;7.93;;
55537;SDS011;41383;51.418;7.286;2023-04-06T14:22:32;16.00;;;7.68;;
55537;SDS011;41383;51.418;7.286;2023-04-06T14:24:58;11.10;;;5.72;;
55537;SDS011;41383;51.418;7.286;2023-04-06T14:27:23;20.40;;;11.17;;
55537;SDS011;41383;51.418;7.286;2023-04-06T14:29:49;19.27;;;9.30;;
55537;SDS011;41383;51.418;7.286;2023-04-06T14:32:14;16.10;;;9.38;;